sensor_id;sensor_type;location;lat;lon;timestamp;temperature;humidity
25906;DHT22;13713;52.552;13.204;2024-03-22T00:01:13;17.10;94.30
25906;DHT22;13713;52.552;13.204;2024-03-22T00:03:39;17.10;94.40
25906;DHT22;13713;52.552;13.204;2024-03-22T00:06:05;17.10;94.40
25906;DHT22;13713;52.552;13.204;2024-03-22T00:08:31;17.10;94.40
25906;DHT22;13713;52.552;13.204;2024-03-22T00:10:56;17.10;94.50
25906;DHT22;13713;52.552;13.204;2024-03-22T00:13:22;17.10;94.40
25906;DHT22;13713;52.552;13.204;2024-03-22T00:15:48;17.10;94.40
25906;DHT22;13713;52.552;13.204;2024-03-22T00:18:14;17.10;94.40
25906;DHT22;13713;52.552;13.204;2024-03-22T00:20:40;17.10;94.50
25906;DHT22;13713;52.552;13.204;2024-03-22T00:23:06;17.00;94.50
25906;DHT22;13713;52.552;13.204;2024-03-22T00:25:32;17.10;94.50
25906;DHT22;13713;52.552;13.204;2024-03-22T00:27:57;17.10;94.60
25906;DHT22;13713;52.552;13.204;2024-03-22T00:30:23;17.00;94.70
25906;DHT22;13713;52.552;13.204;2024-03-22T00:32:49;17.10;94.50
25906;DHT22;13713;52.552;13.204;2024-03-22T00:35:15;17.10;94.50
25906;DHT22;13713;52.552;13.204;2024-03-22T00:37:41;17.10;94.60
25906;DHT22;13713;52.552;13.204;2024-03-22T00:40:07;17.10;94.50
25906;DHT22;13713;52.552;13.204;2024-03-22T00:42:33;17.10;94.50
25906;DHT22;13713;52.552;13.204;2024-03-22T00:44:58;17.10;94.50
25906;DHT22;13713;52.552;13.204;2024-03-22T00:47:24;17.10;94.50
25906;DHT22;13713;52.552;13.204;2024-03-22T00:49:50;17.00;94.40
25906;DHT22;13713;52.552;13.204;2024-03-22T00:52:16;17.10;94.40
25906;DHT22;13713;52.552;13.204;2024-03-22T00:54:42;17.10;94.50
25906;DHT22;13713;52.552;13.204;2024-03-22T00:57:08;17.00;94.40
25906;DHT22;13713;52.552;13.204;2024-03-22T00:59:34;17.00;94.50
25906;DHT22;13713;52.552;13.204;2024-03-22T01:02:00;17.00;94.50
25906;DHT22;13713;52.552;13.204;2024-03-22T01:04:26;17.00;94.50
25906;DHT22;13713;52.552;13.204;2024-03-22T01:06:52;17.00;94.50
25906;DHT22;13713;52.552;13.204;2024-03-22T01:09:17;17.00;94.40
25906;DHT22;13713;52.552;13.204;2024-03-22T01:11:45;17.00;94.30
25906;DHT22;13713;52.552;13.204;2024-03-22T01:14:10;17.00;94.50
25906;DHT22;13713;52.552;13.204;2024-03-22T01:16:36;17.00;94.50
25906;DHT22;13713;52.552;13.204;2024-03-22T01:19:02;17.00;94.30
25906;DHT22;13713;52.552;13.204;2024-03-22T01:21:28;17.00;94.40
25906;DHT22;13713;52.552;13.204;2024-03-22T01:23:54;17.00;94.50
25906;DHT22;13713;52.552;13.204;2024-03-22T01:26:20;17.00;94.50
25906;DHT22;13713;52.552;13.204;2024-03-22T01:28:46;17.00;94.50
25906;DHT22;13713;52.552;13.204;2024-03-22T01:31:12;17.00;94.50
25906;DHT22;13713;52.552;13.204;2024-03-22T01:33:38;17.00;94.50
25906;DHT22;13713;52.552;13.204;2024-03-22T01:36:04;17.00;94.50
25906;DHT22;13713;52.552;13.204;2024-03-22T01:38:31;17.00;94.50
25906;DHT22;13713;52.552;13.204;2024-03-22T01:40:57;16.90;94.50
25906;DHT22;13713;52.552;13.204;2024-03-22T01:43:22;17.00;94.50
25906;DHT22;13713;52.552;13.204;2024-03-22T01:45:48;16.90;94.50
25906;DHT22;13713;52.552;13.204;2024-03-22T01:48:14;17.00;94.50
25906;DHT22;13713;52.552;13.204;2024-03-22T01:50:41;16.90;94.50
25906;DHT22;13713;52.552;13.204;2024-03-22T01:53:08;16.90;94.50
25906;DHT22;13713;52.552;13.204;2024-03-22T01:55:34;17.00;94.50
25906;DHT22;13713;52.552;13.204;2024-03-22T01:58:00;16.90;94.60
25906;DHT22;13713;52.552;13.204;2024-03-22T02:00:26;16.90;94.50
25906;DHT22;13713;52.552;13.204;2024-03-22T02:02:51;16.90;94.50
25906;DHT22;13713;52.552;13.204;2024-03-22T02:05:18;16.90;94.40
25906;DHT22;13713;52.552;13.204;2024-03-22T02:07:47;16.90;94.30
25906;DHT22;13713;52.552;13.204;2024-03-22T02:10:14;16.90;94.50
25906;DHT22;13713;52.552;13.204;2024-03-22T02:12:40;16.90;94.40
25906;DHT22;13713;52.552;13.204;2024-03-22T02:15:07;16.90;94.40
25906;DHT22;13713;52.552;13.204;2024-03-22T02:17:34;16.90;94.40
25906;DHT22;13713;52.552;13.204;2024-03-22T02:20:00;16.90;94.40
25906;DHT22;13713;52.552;13.204;2024-03-22T02:22:27;16.90;94.40
25906;DHT22;13713;52.552;13.204;2024-03-22T02:24:53;16.90;94.40
25906;DHT22;13713;52.552;13.204;2024-03-22T02:27:19;16.90;94.40
25906;DHT22;13713;52.552;13.204;2024-03-22T02:29:45;16.90;94.50
25906;DHT22;13713;52.552;13.204;2024-03-22T02:32:11;16.90;94.40
25906;DHT22;13713;52.552;13.204;2024-03-22T02:34:37;16.90;94.40
25906;DHT22;13713;52.552;13.204;2024-03-22T02:37:02;16.90;94.40
25906;DHT22;13713;52.552;13.204;2024-03-22T02:39:28;16.90;94.50
25906;DHT22;13713;52.552;13.204;2024-03-22T02:41:55;16.90;94.50
25906;DHT22;13713;52.552;13.204;2024-03-22T02:44:21;16.90;94.40
25906;DHT22;13713;52.552;13.204;2024-03-22T02:46:46;16.90;94.40
25906;DHT22;13713;52.552;13.204;2024-03-22T02:49:13;16.90;94.40
25906;DHT22;13713;52.552;13.204;2024-03-22T02:51:38;16.90;94.40
25906;DHT22;13713;52.552;13.204;2024-03-22T02:54:04;16.90;94.40
25906;DHT22;13713;52.552;13.204;2024-03-22T02:56:30;16.90;94.40
25906;DHT22;13713;52.552;13.204;2024-03-22T02:58:56;16.60;94.30
25906;DHT22;13713;52.552;13.204;2024-03-22T03:01:22;16.80;94.40
25906;DHT22;13713;52.552;13.204;2024-03-22T03:03:48;16.80;94.40
25906;DHT22;13713;52.552;13.204;2024-03-22T03:06:14;16.80;94.40
25906;DHT22;13713;52.552;13.204;2024-03-22T03:08:40;16.80;94.40
25906;DHT22;13713;52.552;13.204;2024-03-22T03:11:06;16.80;94.40
25906;DHT22;13713;52.552;13.204;2024-03-22T03:13:32;16.80;94.40
25906;DHT22;13713;52.552;13.204;2024-03-22T03:15:58;16.80;94.30
25906;DHT22;13713;52.552;13.204;2024-03-22T03:18:24;16.80;94.30
25906;DHT22;13713;52.552;13.204;2024-03-22T03:20:50;16.80;94.70
25906;DHT22;13713;52.552;13.204;2024-03-22T03:23:15;16.80;94.30
25906;DHT22;13713;52.552;13.204;2024-03-22T03:25:41;16.80;94.30
25906;DHT22;13713;52.552;13.204;2024-03-22T03:28:07;16.80;94.30
25906;DHT22;13713;52.552;13.204;2024-03-22T03:30:36;16.80;94.40
25906;DHT22;13713;52.552;13.204;2024-03-22T03:33:02;16.80;94.30
25906;DHT22;13713;52.552;13.204;2024-03-22T03:35:28;16.80;94.30
25906;DHT22;13713;52.552;13.204;2024-03-22T03:37:55;16.80;94.30
25906;DHT22;13713;52.552;13.204;2024-03-22T03:40:20;16.80;94.30
25906;DHT22;13713;52.552;13.204;2024-03-22T03:42:47;16.80;94.20
25906;DHT22;13713;52.552;13.204;2024-03-22T03:45:13;16.80;94.10
25906;DHT22;13713;52.552;13.204;2024-03-22T03:47:39;16.80;94.20
25906;DHT22;13713;52.552;13.204;2024-03-22T03:50:05;16.80;94.20
25906;DHT22;13713;52.552;13.204;2024-03-22T03:52:31;16.80;94.20
25906;DHT22;13713;52.552;13.204;2024-03-22T03:54:56;16.90;93.80
25906;DHT22;13713;52.552;13.204;2024-03-22T03:57:22;16.90;93.40
25906;DHT22;13713;52.552;13.204;2024-03-22T03:59:48;16.90;93.40
25906;DHT22;13713;52.552;13.204;2024-03-22T04:02:14;17.00;92.60
25906;DHT22;13713;52.552;13.204;2024-03-22T04:04:40;17.10;92.70
25906;DHT22;13713;52.552;13.204;2024-03-22T04:07:05;17.10;92.70
25906;DHT22;13713;52.552;13.204;2024-03-22T04:09:31;17.20;92.30
25906;DHT22;13713;52.552;13.204;2024-03-22T04:11:57;17.30;92.50
25906;DHT22;13713;52.552;13.204;2024-03-22T04:14:25;17.30;92.00
25906;DHT22;13713;52.552;13.204;2024-03-22T04:16:51;17.40;92.00
25906;DHT22;13713;52.552;13.204;2024-03-22T04:19:17;17.40;92.20
25906;DHT22;13713;52.552;13.204;2024-03-22T04:21:43;17.50;92.10
25906;DHT22;13713;52.552;13.204;2024-03-22T04:24:08;17.50;91.80
25906;DHT22;13713;52.552;13.204;2024-03-22T04:26:34;17.50;91.50
25906;DHT22;13713;52.552;13.204;2024-03-22T04:29:00;17.60;91.20
25906;DHT22;13713;52.552;13.204;2024-03-22T04:31:26;17.60;91.50
25906;DHT22;13713;52.552;13.204;2024-03-22T04:33:52;17.60;91.20
25906;DHT22;13713;52.552;13.204;2024-03-22T04:36:18;17.70;91.50
25906;DHT22;13713;52.552;13.204;2024-03-22T04:38:43;17.70;91.40
25906;DHT22;13713;52.552;13.204;2024-03-22T04:41:09;17.70;91.20
25906;DHT22;13713;52.552;13.204;2024-03-22T04:43:35;17.80;90.70
25906;DHT22;13713;52.552;13.204;2024-03-22T04:46:01;17.80;91.00
25906;DHT22;13713;52.552;13.204;2024-03-22T04:48:26;17.80;90.60
25906;DHT22;13713;52.552;13.204;2024-03-22T04:50:53;17.80;90.80
25906;DHT22;13713;52.552;13.204;2024-03-22T04:53:21;17.90;90.50
25906;DHT22;13713;52.552;13.204;2024-03-22T04:55:48;17.90;90.80
25906;DHT22;13713;52.552;13.204;2024-03-22T04:58:22;17.90;90.50
25906;DHT22;13713;52.552;13.204;2024-03-22T05:00:49;17.90;90.30
25906;DHT22;13713;52.552;13.204;2024-03-22T05:03:21;18.00;90.30
25906;DHT22;13713;52.552;13.204;2024-03-22T05:05:47;18.00;90.10
25906;DHT22;13713;52.552;13.204;2024-03-22T05:08:13;18.00;90.00
25906;DHT22;13713;52.552;13.204;2024-03-22T05:10:38;18.00;89.60
25906;DHT22;13713;52.552;13.204;2024-03-22T05:13:04;18.00;90.10
25906;DHT22;13713;52.552;13.204;2024-03-22T05:15:30;18.00;89.70
25906;DHT22;13713;52.552;13.204;2024-03-22T05:17:57;18.10;90.60
25906;DHT22;13713;52.552;13.204;2024-03-22T05:20:23;18.10;89.70
25906;DHT22;13713;52.552;13.204;2024-03-22T05:22:49;18.10;89.20
25906;DHT22;13713;52.552;13.204;2024-03-22T05:25:15;18.20;90.00
25906;DHT22;13713;52.552;13.204;2024-03-22T05:27:41;18.20;89.90
25906;DHT22;13713;52.552;13.204;2024-03-22T05:30:08;18.20;89.30
25906;DHT22;13713;52.552;13.204;2024-03-22T05:32:55;18.20;88.90
25906;DHT22;13713;52.552;13.204;2024-03-22T05:35:21;18.20;88.90
25906;DHT22;13713;52.552;13.204;2024-03-22T05:37:47;18.20;88.20
25906;DHT22;13713;52.552;13.204;2024-03-22T05:40:13;18.30;89.40
25906;DHT22;13713;52.552;13.204;2024-03-22T05:42:39;18.30;89.20
25906;DHT22;13713;52.552;13.204;2024-03-22T05:45:05;18.30;88.20
25906;DHT22;13713;52.552;13.204;2024-03-22T05:47:31;18.40;88.50
25906;DHT22;13713;52.552;13.204;2024-03-22T05:49:58;18.40;90.10
25906;DHT22;13713;52.552;13.204;2024-03-22T05:52:24;18.50;90.00
25906;DHT22;13713;52.552;13.204;2024-03-22T05:54:50;18.50;89.40
25906;DHT22;13713;52.552;13.204;2024-03-22T05:57:17;18.50;89.10
25906;DHT22;13713;52.552;13.204;2024-03-22T05:59:43;18.60;89.40
25906;DHT22;13713;52.552;13.204;2024-03-22T06:02:08;18.60;88.60
25906;DHT22;13713;52.552;13.204;2024-03-22T06:04:34;18.60;87.30
25906;DHT22;13713;52.552;13.204;2024-03-22T06:07:00;18.60;87.30
25906;DHT22;13713;52.552;13.204;2024-03-22T06:09:29;18.60;88.30
25906;DHT22;13713;52.552;13.204;2024-03-22T06:12:12;18.60;87.60
25906;DHT22;13713;52.552;13.204;2024-03-22T06:14:40;18.70;87.20
25906;DHT22;13713;52.552;13.204;2024-03-22T06:17:06;18.80;84.40
25906;DHT22;13713;52.552;13.204;2024-03-22T06:19:32;18.90;84.20
25906;DHT22;13713;52.552;13.204;2024-03-22T06:21:58;18.90;84.60
25906;DHT22;13713;52.552;13.204;2024-03-22T06:24:24;18.90;86.60
25906;DHT22;13713;52.552;13.204;2024-03-22T06:26:49;19.00;84.90
25906;DHT22;13713;52.552;13.204;2024-03-22T06:29:16;19.00;84.70
25906;DHT22;13713;52.552;13.204;2024-03-22T06:31:43;19.10;85.20
25906;DHT22;13713;52.552;13.204;2024-03-22T06:34:09;19.10;84.80
25906;DHT22;13713;52.552;13.204;2024-03-22T06:36:35;19.20;84.50
25906;DHT22;13713;52.552;13.204;2024-03-22T06:39:02;19.20;84.40
25906;DHT22;13713;52.552;13.204;2024-03-22T06:41:33;19.30;83.90
25906;DHT22;13713;52.552;13.204;2024-03-22T06:43:59;19.50;82.90
25906;DHT22;13713;52.552;13.204;2024-03-22T06:46:25;19.40;83.30
25906;DHT22;13713;52.552;13.204;2024-03-22T06:48:52;19.30;83.50
25906;DHT22;13713;52.552;13.204;2024-03-22T06:51:18;19.20;83.60
25906;DHT22;13713;52.552;13.204;2024-03-22T06:53:44;19.20;84.00
25906;DHT22;13713;52.552;13.204;2024-03-22T06:56:11;19.10;84.50
25906;DHT22;13713;52.552;13.204;2024-03-22T06:58:40;19.00;84.70
25906;DHT22;13713;52.552;13.204;2024-03-22T07:01:07;19.00;85.30
25906;DHT22;13713;52.552;13.204;2024-03-22T07:03:32;19.00;85.80
25906;DHT22;13713;52.552;13.204;2024-03-22T07:05:59;19.20;85.00
25906;DHT22;13713;52.552;13.204;2024-03-22T07:08:25;19.30;84.40
25906;DHT22;13713;52.552;13.204;2024-03-22T07:10:51;19.30;84.00
25906;DHT22;13713;52.552;13.204;2024-03-22T07:13:19;19.40;83.60
25906;DHT22;13713;52.552;13.204;2024-03-22T07:15:45;19.40;83.50
25906;DHT22;13713;52.552;13.204;2024-03-22T07:18:12;19.50;83.50
25906;DHT22;13713;52.552;13.204;2024-03-22T07:20:37;19.50;83.50
25906;DHT22;13713;52.552;13.204;2024-03-22T07:23:03;19.60;83.70
25906;DHT22;13713;52.552;13.204;2024-03-22T07:25:30;19.60;83.40
25906;DHT22;13713;52.552;13.204;2024-03-22T07:27:56;19.70;83.50
25906;DHT22;13713;52.552;13.204;2024-03-22T07:30:22;19.70;82.70
25906;DHT22;13713;52.552;13.204;2024-03-22T07:32:48;19.80;83.70
25906;DHT22;13713;52.552;13.204;2024-03-22T07:35:14;19.80;83.20
25906;DHT22;13713;52.552;13.204;2024-03-22T07:37:40;19.80;83.40
25906;DHT22;13713;52.552;13.204;2024-03-22T07:40:06;19.80;83.20
25906;DHT22;13713;52.552;13.204;2024-03-22T07:42:32;19.80;83.10
25906;DHT22;13713;52.552;13.204;2024-03-22T07:44:58;19.90;82.90
25906;DHT22;13713;52.552;13.204;2024-03-22T07:47:24;19.90;82.90
25906;DHT22;13713;52.552;13.204;2024-03-22T07:49:51;19.90;82.90
25906;DHT22;13713;52.552;13.204;2024-03-22T07:52:17;19.90;83.00
25906;DHT22;13713;52.552;13.204;2024-03-22T07:54:43;19.90;83.10
25906;DHT22;13713;52.552;13.204;2024-03-22T07:57:09;19.90;83.40
25906;DHT22;13713;52.552;13.204;2024-03-22T07:59:36;19.80;83.60
25906;DHT22;13713;52.552;13.204;2024-03-22T08:02:02;19.80;83.90
25906;DHT22;13713;52.552;13.204;2024-03-22T08:04:29;19.80;84.80
25906;DHT22;13713;52.552;13.204;2024-03-22T08:06:55;19.80;84.50
25906;DHT22;13713;52.552;13.204;2024-03-22T08:09:21;19.80;84.60
25906;DHT22;13713;52.552;13.204;2024-03-22T08:11:47;19.80;84.70
25906;DHT22;13713;52.552;13.204;2024-03-22T08:14:16;19.70;84.50
25906;DHT22;13713;52.552;13.204;2024-03-22T08:16:42;19.70;85.10
25906;DHT22;13713;52.552;13.204;2024-03-22T08:19:08;19.70;85.20
25906;DHT22;13713;52.552;13.204;2024-03-22T08:21:34;19.60;85.50
25906;DHT22;13713;52.552;13.204;2024-03-22T08:24:00;19.60;85.80
25906;DHT22;13713;52.552;13.204;2024-03-22T08:26:28;19.60;85.90
25906;DHT22;13713;52.552;13.204;2024-03-22T08:28:54;19.60;86.50
25906;DHT22;13713;52.552;13.204;2024-03-22T08:31:20;19.60;86.40
25906;DHT22;13713;52.552;13.204;2024-03-22T08:33:51;19.60;86.60
25906;DHT22;13713;52.552;13.204;2024-03-22T08:36:17;19.50;88.70
25906;DHT22;13713;52.552;13.204;2024-03-22T08:38:43;19.60;87.60
25906;DHT22;13713;52.552;13.204;2024-03-22T08:41:09;19.60;87.10
25906;DHT22;13713;52.552;13.204;2024-03-22T08:43:34;19.60;86.90
25906;DHT22;13713;52.552;13.204;2024-03-22T08:46:00;19.60;86.70
25906;DHT22;13713;52.552;13.204;2024-03-22T08:48:26;19.70;86.50
25906;DHT22;13713;52.552;13.204;2024-03-22T08:50:52;19.70;86.60
25906;DHT22;13713;52.552;13.204;2024-03-22T08:53:18;19.70;86.50
25906;DHT22;13713;52.552;13.204;2024-03-22T08:55:48;19.70;86.40
25906;DHT22;13713;52.552;13.204;2024-03-22T08:58:14;19.70;86.50
25906;DHT22;13713;52.552;13.204;2024-03-22T09:00:44;19.80;86.50
25906;DHT22;13713;52.552;13.204;2024-03-22T09:03:10;19.80;87.00
25906;DHT22;13713;52.552;13.204;2024-03-22T09:05:36;19.80;87.00
25906;DHT22;13713;52.552;13.204;2024-03-22T09:08:03;19.80;88.30
25906;DHT22;13713;52.552;13.204;2024-03-22T09:10:29;19.80;88.80
25906;DHT22;13713;52.552;13.204;2024-03-22T09:12:55;19.70;89.20
25906;DHT22;13713;52.552;13.204;2024-03-22T09:15:22;19.70;90.00
25906;DHT22;13713;52.552;13.204;2024-03-22T09:17:48;19.60;90.20
25906;DHT22;13713;52.552;13.204;2024-03-22T09:20:14;19.60;90.30
25906;DHT22;13713;52.552;13.204;2024-03-22T09:22:41;19.60;90.50
25906;DHT22;13713;52.552;13.204;2024-03-22T09:25:07;19.60;90.60
25906;DHT22;13713;52.552;13.204;2024-03-22T09:27:33;19.60;90.90
25906;DHT22;13713;52.552;13.204;2024-03-22T09:29:59;19.70;91.40
25906;DHT22;13713;52.552;13.204;2024-03-22T09:32:27;19.70;91.40
25906;DHT22;13713;52.552;13.204;2024-03-22T09:34:52;19.70;91.70
25906;DHT22;13713;52.552;13.204;2024-03-22T09:37:18;19.70;91.80
25906;DHT22;13713;52.552;13.204;2024-03-22T09:39:44;19.70;91.80
25906;DHT22;13713;52.552;13.204;2024-03-22T09:42:16;19.70;91.70
25906;DHT22;13713;52.552;13.204;2024-03-22T09:44:49;19.70;92.00
25906;DHT22;13713;52.552;13.204;2024-03-22T09:47:19;19.70;92.00
25906;DHT22;13713;52.552;13.204;2024-03-22T09:49:48;19.70;92.00
25906;DHT22;13713;52.552;13.204;2024-03-22T09:52:15;19.70;92.00
25906;DHT22;13713;52.552;13.204;2024-03-22T09:54:45;19.70;91.90
25906;DHT22;13713;52.552;13.204;2024-03-22T09:57:15;19.70;92.00
25906;DHT22;13713;52.552;13.204;2024-03-22T09:59:47;19.70;91.90
25906;DHT22;13713;52.552;13.204;2024-03-22T10:02:16;19.70;92.00
25906;DHT22;13713;52.552;13.204;2024-03-22T10:04:43;19.70;92.10
25906;DHT22;13713;52.552;13.204;2024-03-22T10:07:09;19.70;92.20
25906;DHT22;13713;52.552;13.204;2024-03-22T10:09:36;19.70;92.30
25906;DHT22;13713;52.552;13.204;2024-03-22T10:12:03;19.70;92.50
25906;DHT22;13713;52.552;13.204;2024-03-22T10:14:29;19.70;92.50
25906;DHT22;13713;52.552;13.204;2024-03-22T10:16:56;19.70;92.40
25906;DHT22;13713;52.552;13.204;2024-03-22T10:19:23;19.70;92.60
25906;DHT22;13713;52.552;13.204;2024-03-22T10:22:02;19.70;93.00
25906;DHT22;13713;52.552;13.204;2024-03-22T10:24:29;19.70;93.10
25906;DHT22;13713;52.552;13.204;2024-03-22T10:26:56;19.80;93.30
25906;DHT22;13713;52.552;13.204;2024-03-22T10:29:22;19.80;93.30
25906;DHT22;13713;52.552;13.204;2024-03-22T10:31:50;19.80;93.50
25906;DHT22;13713;52.552;13.204;2024-03-22T10:34:17;19.80;94.20
25906;DHT22;13713;52.552;13.204;2024-03-22T10:36:46;19.80;93.90
25906;DHT22;13713;52.552;13.204;2024-03-22T10:39:15;19.80;94.00
25906;DHT22;13713;52.552;13.204;2024-03-22T10:41:43;19.80;94.90
25906;DHT22;13713;52.552;13.204;2024-03-22T10:44:10;19.80;94.90
25906;DHT22;13713;52.552;13.204;2024-03-22T10:46:36;19.80;94.50
25906;DHT22;13713;52.552;13.204;2024-03-22T10:49:02;19.80;95.00
25906;DHT22;13713;52.552;13.204;2024-03-22T10:51:30;19.90;95.20
25906;DHT22;13713;52.552;13.204;2024-03-22T10:53:57;19.90;95.70
25906;DHT22;13713;52.552;13.204;2024-03-22T10:56:25;19.90;95.50
25906;DHT22;13713;52.552;13.204;2024-03-22T10:58:52;19.80;94.50
25906;DHT22;13713;52.552;13.204;2024-03-22T11:01:25;19.80;91.50
25906;DHT22;13713;52.552;13.204;2024-03-22T11:04:03;19.60;90.50
25906;DHT22;13713;52.552;13.204;2024-03-22T11:06:30;19.60;87.40
25906;DHT22;13713;52.552;13.204;2024-03-22T11:09:00;19.50;87.90
25906;DHT22;13713;52.552;13.204;2024-03-22T11:11:28;19.40;85.90
25906;DHT22;13713;52.552;13.204;2024-03-22T11:13:56;19.40;84.30
25906;DHT22;13713;52.552;13.204;2024-03-22T11:16:22;19.40;84.40
25906;DHT22;13713;52.552;13.204;2024-03-22T11:18:48;19.30;83.80
25906;DHT22;13713;52.552;13.204;2024-03-22T11:21:15;19.30;85.50
25906;DHT22;13713;52.552;13.204;2024-03-22T11:23:44;19.30;84.00
25906;DHT22;13713;52.552;13.204;2024-03-22T11:26:11;19.20;83.40
25906;DHT22;13713;52.552;13.204;2024-03-22T11:28:41;19.20;85.20
25906;DHT22;13713;52.552;13.204;2024-03-22T11:31:07;19.20;81.80
25906;DHT22;13713;52.552;13.204;2024-03-22T11:33:33;19.10;81.70
25906;DHT22;13713;52.552;13.204;2024-03-22T11:36:03;19.10;80.80
25906;DHT22;13713;52.552;13.204;2024-03-22T11:38:31;19.10;82.20
25906;DHT22;13713;52.552;13.204;2024-03-22T11:40:58;19.10;82.30
25906;DHT22;13713;52.552;13.204;2024-03-22T11:43:27;19.00;82.50
25906;DHT22;13713;52.552;13.204;2024-03-22T11:45:54;19.00;82.60
25906;DHT22;13713;52.552;13.204;2024-03-22T11:48:21;18.90;82.20
25906;DHT22;13713;52.552;13.204;2024-03-22T11:50:49;18.90;82.60
25906;DHT22;13713;52.552;13.204;2024-03-22T11:53:16;18.80;82.60
25906;DHT22;13713;52.552;13.204;2024-03-22T11:55:43;18.80;82.80
25906;DHT22;13713;52.552;13.204;2024-03-22T11:58:12;18.80;82.50
25906;DHT22;13713;52.552;13.204;2024-03-22T12:00:38;18.80;85.40
25906;DHT22;13713;52.552;13.204;2024-03-22T12:03:05;18.80;85.00
25906;DHT22;13713;52.552;13.204;2024-03-22T12:05:31;18.80;84.70
25906;DHT22;13713;52.552;13.204;2024-03-22T12:07:57;18.70;85.90
25906;DHT22;13713;52.552;13.204;2024-03-22T12:10:23;18.70;87.90
25906;DHT22;13713;52.552;13.204;2024-03-22T12:12:49;18.80;88.50
25906;DHT22;13713;52.552;13.204;2024-03-22T12:15:15;18.90;89.20
25906;DHT22;13713;52.552;13.204;2024-03-22T12:17:41;19.00;89.80
25906;DHT22;13713;52.552;13.204;2024-03-22T12:20:09;19.00;89.60
25906;DHT22;13713;52.552;13.204;2024-03-22T12:22:35;19.10;90.30
25906;DHT22;13713;52.552;13.204;2024-03-22T12:25:01;19.10;90.50
25906;DHT22;13713;52.552;13.204;2024-03-22T12:27:30;19.20;90.50
25906;DHT22;13713;52.552;13.204;2024-03-22T12:29:55;19.20;91.30
25906;DHT22;13713;52.552;13.204;2024-03-22T12:32:21;19.20;91.20
25906;DHT22;13713;52.552;13.204;2024-03-22T12:34:47;19.20;91.30
25906;DHT22;13713;52.552;13.204;2024-03-22T12:37:13;19.20;91.70
25906;DHT22;13713;52.552;13.204;2024-03-22T12:39:39;19.30;92.40
25906;DHT22;13713;52.552;13.204;2024-03-22T12:42:05;19.30;93.00
25906;DHT22;13713;52.552;13.204;2024-03-22T12:44:31;19.40;93.00
25906;DHT22;13713;52.552;13.204;2024-03-22T12:46:57;19.40;93.50
25906;DHT22;13713;52.552;13.204;2024-03-22T12:49:23;19.40;93.50
25906;DHT22;13713;52.552;13.204;2024-03-22T12:51:49;19.40;94.10
25906;DHT22;13713;52.552;13.204;2024-03-22T12:54:15;19.40;94.10
25906;DHT22;13713;52.552;13.204;2024-03-22T12:56:44;19.40;94.20
25906;DHT22;13713;52.552;13.204;2024-03-22T12:59:10;19.40;95.00
25906;DHT22;13713;52.552;13.204;2024-03-22T13:01:36;19.50;94.80
25906;DHT22;13713;52.552;13.204;2024-03-22T13:04:04;19.50;94.80
25906;DHT22;13713;52.552;13.204;2024-03-22T13:06:30;19.40;94.90
25906;DHT22;13713;52.552;13.204;2024-03-22T13:08:55;19.50;94.80
25906;DHT22;13713;52.552;13.204;2024-03-22T13:11:21;19.50;94.90
25906;DHT22;13713;52.552;13.204;2024-03-22T13:13:47;19.50;95.60
25906;DHT22;13713;52.552;13.204;2024-03-22T13:16:13;19.50;95.50
25906;DHT22;13713;52.552;13.204;2024-03-22T13:18:41;19.50;96.20
25906;DHT22;13713;52.552;13.204;2024-03-22T13:21:07;19.50;96.20
25906;DHT22;13713;52.552;13.204;2024-03-22T13:23:33;19.50;96.70
25906;DHT22;13713;52.552;13.204;2024-03-22T13:26:04;19.50;96.60
25906;DHT22;13713;52.552;13.204;2024-03-22T13:28:30;19.50;96.90
25906;DHT22;13713;52.552;13.204;2024-03-22T13:31:03;19.50;97.30
25906;DHT22;13713;52.552;13.204;2024-03-22T13:33:34;19.50;98.10
25906;DHT22;13713;52.552;13.204;2024-03-22T13:36:01;19.60;98.30
25906;DHT22;13713;52.552;13.204;2024-03-22T13:38:27;19.60;98.70
25906;DHT22;13713;52.552;13.204;2024-03-22T13:40:55;19.60;98.20
25906;DHT22;13713;52.552;13.204;2024-03-22T13:43:21;19.60;98.70
25906;DHT22;13713;52.552;13.204;2024-03-22T13:45:50;19.70;99.10
25906;DHT22;13713;52.552;13.204;2024-03-22T13:48:20;19.60;98.90
25906;DHT22;13713;52.552;13.204;2024-03-22T13:50:48;19.60;99.40
25906;DHT22;13713;52.552;13.204;2024-03-22T13:53:14;19.60;99.10
25906;DHT22;13713;52.552;13.204;2024-03-22T13:55:42;19.70;99.20
25906;DHT22;13713;52.552;13.204;2024-03-22T13:58:08;19.60;99.10
25906;DHT22;13713;52.552;13.204;2024-03-22T14:00:34;19.60;98.70
25906;DHT22;13713;52.552;13.204;2024-03-22T14:03:01;19.70;99.50
25906;DHT22;13713;52.552;13.204;2024-03-22T14:05:27;19.70;99.00
25906;DHT22;13713;52.552;13.204;2024-03-22T14:07:53;19.70;99.30
25906;DHT22;13713;52.552;13.204;2024-03-22T14:10:20;19.60;98.90
25906;DHT22;13713;52.552;13.204;2024-03-22T14:12:46;19.60;98.90
25906;DHT22;13713;52.552;13.204;2024-03-22T14:15:13;19.60;99.20
25906;DHT22;13713;52.552;13.204;2024-03-22T14:17:39;19.60;99.10
25906;DHT22;13713;52.552;13.204;2024-03-22T14:20:05;19.60;99.20
25906;DHT22;13713;52.552;13.204;2024-03-22T14:22:40;19.60;99.40
25906;DHT22;13713;52.552;13.204;2024-03-22T14:25:07;19.60;99.20
25906;DHT22;13713;52.552;13.204;2024-03-22T14:27:34;19.60;99.60
25906;DHT22;13713;52.552;13.204;2024-03-22T14:30:01;19.60;99.30
25906;DHT22;13713;52.552;13.204;2024-03-22T14:32:34;19.60;99.00
25906;DHT22;13713;52.552;13.204;2024-03-22T14:35:00;19.70;98.80
25906;DHT22;13713;52.552;13.204;2024-03-22T14:37:26;19.60;98.50
25906;DHT22;13713;52.552;13.204;2024-03-22T14:39:52;19.50;98.30
25906;DHT22;13713;52.552;13.204;2024-03-22T14:42:18;19.50;98.50
25906;DHT22;13713;52.552;13.204;2024-03-22T14:44:44;19.50;98.00
25906;DHT22;13713;52.552;13.204;2024-03-22T14:47:10;19.50;97.70
25906;DHT22;13713;52.552;13.204;2024-03-22T14:49:36;19.40;96.20
25906;DHT22;13713;52.552;13.204;2024-03-22T14:52:02;19.40;96.90
25906;DHT22;13713;52.552;13.204;2024-03-22T14:54:27;19.40;96.60
25906;DHT22;13713;52.552;13.204;2024-03-22T14:56:53;19.30;96.20
25906;DHT22;13713;52.552;13.204;2024-03-22T14:59:20;19.30;95.10
25906;DHT22;13713;52.552;13.204;2024-03-22T15:01:46;19.20;95.40
25906;DHT22;13713;52.552;13.204;2024-03-22T15:04:12;19.20;95.70
25906;DHT22;13713;52.552;13.204;2024-03-22T15:06:38;19.20;95.70
25906;DHT22;13713;52.552;13.204;2024-03-22T15:09:04;19.20;96.00
25906;DHT22;13713;52.552;13.204;2024-03-22T15:11:37;19.10;96.30